Time;durP1;ratioP1;P1;durP2;ratioP2;P2;SDS_P1;SDS_P2;PMS_P1;PMS_P2;Temp;Humidity;BMP_temperature;BMP_pressure;BME280_temperature;BME280_humidity;BME280_pressure;Samples;Min_cycle;Max_cycle;Signal;HPM_P1;HPM_P2
2021/08/15 00:00:06;;;;;;;15.38;7.43;;;;;;;;;;5056049;28;20371;-71
2021/08/15 00:02:33;;;;;;;15.40;8.15;;;;;;;;;;5059606;28;20082;-70
2021/08/15 00:04:59;;;;;;;15.20;7.97;;;;;;;;;;5077189;28;20032;-72
2021/08/15 00:07:25;;;;;;;13.57;7.50;;;;;;;;;;5075460;28;20064;-70
2021/08/15 00:09:51;;;;;;;15.18;7.72;;;;;;;;;;5077464;28;20028;-70
2021/08/15 00:12:17;;;;;;;14.45;8.32;;;;;;;;;;5067787;28;20436;-73
2021/08/15 00:14:44;;;;;;;14.18;8.07;;;;;;;;;;5057094;28;20064;-71
2021/08/15 00:17:10;;;;;;;11.07;6.57;;;;;;;;;;5058097;28;20029;-71
2021/08/15 00:19:36;;;;;;;13.18;7.65;;;;;;;;;;5056707;28;20417;-70
2021/08/15 00:22:02;;;;;;;12.55;7.68;;;;;;;;;;5063396;28;20081;-70
2021/08/15 00:24:28;;;;;;;17.02;7.40;;;;;;;;;;5076537;28;20036;-71
2021/08/15 00:26:54;;;;;;;14.23;7.50;;;;;;;;;;5069384;28;20029;-70
2021/08/15 00:29:20;;;;;;;22.35;8.57;;;;;;;;;;5056386;28;20083;-71
2021/08/15 00:31:46;;;;;;;14.52;7.45;;;;;;;;;;5063034;28;20055;-70
2021/08/15 00:34:12;;;;;;;14.18;7.55;;;;;;;;;;5076922;28;20040;-72
2021/08/15 00:36:39;;;;;;;16.00;7.78;;;;;;;;;;5070499;28;20028;-72
2021/08/15 00:39:05;;;;;;;13.75;7.68;;;;;;;;;;5056270;28;20051;-70
2021/08/15 00:41:31;;;;;;;14.05;8.07;;;;;;;;;;5056630;28;20025;-72
2021/08/15 00:43:57;;;;;;;13.30;7.20;;;;;;;;;;5070208;28;20047;-72
2021/08/15 00:46:23;;;;;;;13.93;7.38;;;;;;;;;;5069113;28;20054;-73
2021/08/15 00:48:50;;;;;;;13.20;6.05;;;;;;;;;;5060890;28;20033;-72
2021/08/15 00:51:16;;;;;;;13.70;7.03;;;;;;;;;;5070953;28;20115;-73
2021/08/15 00:53:42;;;;;;;12.73;7.50;;;;;;;;;;5072173;28;20384;-70
2021/08/15 00:56:10;;;;;;;19.23;7.82;;;;;;;;;;5056437;28;20022;-70
2021/08/15 00:58:39;;;;;;;13.52;6.75;;;;;;;;;;5057552;28;20021;-71
2021/08/15 01:01:06;;;;;;;14.18;7.38;;;;;;;;;;5056116;28;20490;-72
2021/08/15 01:03:32;;;;;;;12.77;7.60;;;;;;;;;;5074980;28;20123;-70
2021/08/15 01:05:59;;;;;;;15.63;7.72;;;;;;;;;;5074659;28;20032;-71
2021/08/15 01:08:26;;;;;;;10.15;6.22;;;;;;;;;;5074484;28;20036;-71
2021/08/15 01:10:55;;;;;;;10.98;7.00;;;;;;;;;;5071746;28;20021;-69
2021/08/15 01:13:22;;;;;;;9.65;6.47;;;;;;;;;;5055828;28;20086;-71
2021/08/15 01:15:48;;;;;;;12.60;6.75;;;;;;;;;;5058105;28;20029;-71
2021/08/15 01:18:21;;;;;;;10.60;6.30;;;;;;;;;;5075901;28;20089;-70
2021/08/15 01:20:47;;;;;;;10.35;5.88;;;;;;;;;;5074894;28;20152;-71
2021/08/15 01:23:13;;;;;;;13.73;6.57;;;;;;;;;;5075457;28;20016;-73
2021/08/15 01:25:39;;;;;;;11.88;6.45;;;;;;;;;;5073943;28;20028;-70
2021/08/15 01:28:06;;;;;;;11.90;6.43;;;;;;;;;;5078000;28;20088;-70
2021/08/15 01:30:33;;;;;;;12.90;6.57;;;;;;;;;;5074716;28;20063;-70
2021/08/15 01:32:59;;;;;;;13.40;6.30;;;;;;;;;;5058854;28;20029;-74
2021/08/15 01:35:25;;;;;;;9.50;5.53;;;;;;;;;;5055214;28;20484;-72
2021/08/15 01:37:55;;;;;;;9.35;5.88;;;;;;;;;;5056304;28;20503;-73
2021/08/15 01:40:21;;;;;;;13.18;6.35;;;;;;;;;;5055213;28;20025;-71
2021/08/15 01:42:47;;;;;;;12.60;6.22;;;;;;;;;;5073745;28;20039;-71
2021/08/15 01:45:13;;;;;;;11.25;6.03;;;;;;;;;;5074339;28;20116;-71
2021/08/15 01:47:40;;;;;;;10.63;6.80;;;;;;;;;;5075981;28;20020;-70
2021/08/15 01:50:06;;;;;;;11.30;5.68;;;;;;;;;;5061306;28;20036;-72
2021/08/15 01:52:32;;;;;;;7.45;5.22;;;;;;;;;;5055315;28;20025;-71
2021/08/15 01:54:58;;;;;;;8.90;5.78;;;;;;;;;;5056124;28;20029;-70
2021/08/15 01:57:24;;;;;;;9.00;5.65;;;;;;;;;;5055484;28;20099;-70
2021/08/15 01:59:50;;;;;;;9.75;4.70;;;;;;;;;;5068812;28;20063;-72
2021/08/15 02:02:16;;;;;;;6.97;3.95;;;;;;;;;;5075080;28;20332;-71
2021/08/15 02:04:42;;;;;;;10.18;4.13;;;;;;;;;;5073778;28;20041;-71
2021/08/15 02:07:09;;;;;;;8.73;4.30;;;;;;;;;;5075278;28;20027;-70
2021/08/15 02:09:35;;;;;;;8.82;4.70;;;;;;;;;;5074379;28;20025;-70
2021/08/15 02:12:02;;;;;;;8.60;2.92;;;;;;;;;;5074995;28;20025;-71
2021/08/15 02:14:28;;;;;;;6.43;3.03;;;;;;;;;;5063931;28;20036;-71
2021/08/15 02:16:54;;;;;;;10.25;3.10;;;;;;;;;;5054673;28;20541;-70
2021/08/15 02:19:20;;;;;;;12.50;3.15;;;;;;;;;;5059335;28;20624;-71
2021/08/15 02:21:47;;;;;;;9.45;3.00;;;;;;;;;;5054703;28;20033;-70
2021/08/15 02:24:13;;;;;;;13.18;2.95;;;;;;;;;;5064826;28;20552;-71
2021/08/15 02:26:39;;;;;;;8.25;2.78;;;;;;;;;;5074011;28;20048;-73
2021/08/15 02:29:05;;;;;;;6.63;3.40;;;;;;;;;;5066109;28;20391;-72
2021/08/15 02:31:31;;;;;;;8.32;2.92;;;;;;;;;;5055180;28;20098;-72
2021/08/15 02:33:57;;;;;;;10.05;4.45;;;;;;;;;;5063357;28;20032;-72
2021/08/15 02:36:23;;;;;;;6.93;3.05;;;;;;;;;;5074230;28;20074;-72
2021/08/15 02:38:49;;;;;;;7.95;2.90;;;;;;;;;;5067173;28;20021;-72
2021/08/15 02:41:15;;;;;;;9.85;3.38;;;;;;;;;;5054190;28;20100;-73
2021/08/15 02:43:41;;;;;;;8.30;2.97;;;;;;;;;;5059718;28;20048;-72
2021/08/15 02:46:07;;;;;;;6.40;3.30;;;;;;;;;;5073627;28;20024;-72
2021/08/15 02:48:34;;;;;;;6.60;3.40;;;;;;;;;;5072113;28;20024;-72
2021/08/15 02:51:00;;;;;;;7.70;3.63;;;;;;;;;;5054899;28;20361;-70
2021/08/15 02:53:26;;;;;;;9.98;2.80;;;;;;;;;;5054557;28;20032;-72
2021/08/15 02:55:52;;;;;;;8.98;2.72;;;;;;;;;;5072416;28;20044;-70
2021/08/15 02:58:18;;;;;;;12.85;3.42;;;;;;;;;;5070040;28;20068;-70
2021/08/15 03:00:45;;;;;;;19.45;3.28;;;;;;;;;;5054246;28;20017;-71
2021/08/15 03:03:11;;;;;;;8.05;3.00;;;;;;;;;;5054484;28;20618;-72
2021/08/15 03:05:37;;;;;;;6.28;2.80;;;;;;;;;;5053643;28;20451;-72
2021/08/15 03:08:03;;;;;;;9.27;2.95;;;;;;;;;;5055829;28;20033;-71
2021/08/15 03:10:29;;;;;;;11.00;3.63;;;;;;;;;;5073880;28;20036;-71
2021/08/15 03:12:55;;;;;;;10.80;3.88;;;;;;;;;;5071875;28;20090;-71
2021/08/15 03:15:21;;;;;;;11.10;3.25;;;;;;;;;;5053408;28;20029;-71
2021/08/15 03:17:47;;;;;;;11.50;4.13;;;;;;;;;;5053957;28;20510;-72
2021/08/15 03:20:14;;;;;;;8.40;2.88;;;;;;;;;;5053590;28;20032;-71
2021/08/15 03:22:40;;;;;;;15.90;3.33;;;;;;;;;;5053298;28;20082;-73
2021/08/15 03:25:06;;;;;;;8.68;3.38;;;;;;;;;;5073792;28;20035;-71
2021/08/15 03:27:35;;;;;;;8.55;3.30;;;;;;;;;;5057660;28;20025;-70
2021/08/15 03:30:01;;;;;;;12.90;3.28;;;;;;;;;;5053204;28;20021;-70
2021/08/15 03:32:28;;;;;;;10.32;3.30;;;;;;;;;;5071117;28;20033;-71
2021/08/15 03:34:54;;;;;;;7.72;3.17;;;;;;;;;;5075481;28;20031;-70
2021/08/15 03:37:20;;;;;;;10.07;3.47;;;;;;;;;;5075813;28;20039;-71
2021/08/15 03:39:46;;;;;;;8.18;3.60;;;;;;;;;;5077417;28;20031;-71
2021/08/15 03:42:12;;;;;;;9.65;2.88;;;;;;;;;;5062521;28;20029;-70
2021/08/15 03:44:38;;;;;;;6.20;3.08;;;;;;;;;;5072769;28;20029;-70
2021/08/15 03:47:04;;;;;;;10.65;4.38;;;;;;;;;;5075829;28;20656;-70
2021/08/15 03:49:31;;;;;;;8.50;2.70;;;;;;;;;;5077350;28;20120;-71
2021/08/15 03:51:57;;;;;;;13.63;3.95;;;;;;;;;;5061769;28;20037;-71
2021/08/15 03:54:23;;;;;;;7.35;3.72;;;;;;;;;;5057747;28;20035;-72
2021/08/15 03:56:49;;;;;;;10.93;3.42;;;;;;;;;;5062233;28;20079;-70
2021/08/15 03:59:16;;;;;;;14.27;2.85;;;;;;;;;;5057185;28;20053;-68
2021/08/15 04:01:42;;;;;;;7.65;3.60;;;;;;;;;;5068216;28;20021;-71
2021/08/15 04:04:08;;;;;;;14.30;3.70;;;;;;;;;;5077023;28;20532;-71
2021/08/15 04:06:34;;;;;;;8.63;3.58;;;;;;;;;;5060692;28;20055;-70
2021/08/15 04:09:01;;;;;;;8.77;3.00;;;;;;;;;;5057124;28;20025;-71
2021/08/15 04:11:28;;;;;;;9.68;2.88;;;;;;;;;;5058006;28;20044;-74
2021/08/15 04:13:54;;;;;;;6.93;2.90;;;;;;;;;;5057007;28;20021;-71
2021/08/15 04:16:20;;;;;;;10.25;3.47;;;;;;;;;;5069740;28;20020;-71
2021/08/15 04:18:46;;;;;;;8.63;3.67;;;;;;;;;;5077010;28;20035;-72
2021/08/15 04:21:12;;;;;;;9.77;3.58;;;;;;;;;;5062297;28;20484;-68
2021/08/15 04:23:38;;;;;;;6.32;3.80;;;;;;;;;;5056800;28;20029;-72
2021/08/15 04:26:05;;;;;;;7.85;3.42;;;;;;;;;;5068276;28;20033;-72
2021/08/15 04:28:31;;;;;;;9.27;3.63;;;;;;;;;;5076565;28;20021;-72
2021/08/15 04:30:57;;;;;;;8.10;3.22;;;;;;;;;;5075004;28;20032;-71
2021/08/15 04:33:26;;;;;;;8.25;3.35;;;;;;;;;;5076681;28;20035;-72
2021/08/15 04:35:53;;;;;;;7.57;3.45;;;;;;;;;;5074618;28;20039;-71
2021/08/15 04:38:20;;;;;;;10.60;4.07;;;;;;;;;;5077043;28;20391;-72
2021/08/15 04:40:47;;;;;;;14.88;3.25;;;;;;;;;;5064652;28;20025;-71
2021/08/15 04:43:13;;;;;;;9.93;4.28;;;;;;;;;;5056764;28;20100;-73
2021/08/15 04:45:39;;;;;;;9.15;2.97;;;;;;;;;;5064862;28;20104;-72
2021/08/15 04:48:05;;;;;;;9.90;3.60;;;;;;;;;;5076390;28;20368;-71
2021/08/15 04:50:31;;;;;;;9.65;3.75;;;;;;;;;;5057760;28;20080;-72
2021/08/15 04:52:57;;;;;;;9.82;3.25;;;;;;;;;;5054959;28;20033;-71
2021/08/15 04:55:23;;;;;;;12.23;4.13;;;;;;;;;;5068844;28;20394;-71
2021/08/15 04:57:49;;;;;;;9.00;3.72;;;;;;;;;;5056172;28;20021;-69
2021/08/15 05:00:15;;;;;;;12.13;3.50;;;;;;;;;;5069359;28;20494;-71
2021/08/15 05:02:41;;;;;;;9.35;4.32;;;;;;;;;;5077902;28;20031;-71
2021/08/15 05:05:08;;;;;;;12.40;3.63;;;;;;;;;;5059719;28;20037;-73
2021/08/15 05:07:34;;;;;;;8.60;3.38;;;;;;;;;;5057090;28;20025;-71
2021/08/15 05:10:00;;;;;;;8.20;3.50;;;;;;;;;;5074868;28;20032;-71
2021/08/15 05:12:26;;;;;;;13.70;3.90;;;;;;;;;;5074823;28;20529;-70
2021/08/15 05:14:52;;;;;;;11.45;3.70;;;;;;;;;;5055698;28;20029;-73
2021/08/15 05:17:18;;;;;;;10.18;4.30;;;;;;;;;;5056304;28;20041;-72
2021/08/15 05:19:44;;;;;;;6.95;3.50;;;;;;;;;;5056088;28;20021;-71
2021/08/15 05:22:10;;;;;;;9.40;3.15;;;;;;;;;;5055532;28;20060;-73
2021/08/15 05:24:36;;;;;;;8.30;3.78;;;;;;;;;;5056946;28;20407;-71
2021/08/15 05:27:03;;;;;;;6.55;3.45;;;;;;;;;;5055571;28;20029;-69
2021/08/15 05:29:29;;;;;;;8.02;3.92;;;;;;;;;;5073567;28;20059;-72
2021/08/15 05:31:55;;;;;;;18.27;5.60;;;;;;;;;;5056851;28;20117;-70
2021/08/15 05:34:21;;;;;;;10.32;4.10;;;;;;;;;;5055697;28;20449;-71
2021/08/15 05:36:47;;;;;;;11.65;3.85;;;;;;;;;;5057085;28;20029;-72
2021/08/15 05:39:13;;;;;;;9.05;3.40;;;;;;;;;;5071434;28;20063;-72
2021/08/15 05:41:39;;;;;;;9.07;3.35;;;;;;;;;;5075404;28;20033;-71
2021/08/15 05:44:05;;;;;;;11.82;3.28;;;;;;;;;;5060633;28;20032;-73
2021/08/15 05:46:31;;;;;;;8.15;3.35;;;;;;;;;;5055784;28;20021;-71
2021/08/15 05:48:58;;;;;;;9.82;4.93;;;;;;;;;;5065523;28;20028;-72
2021/08/15 05:51:24;;;;;;;10.93;3.42;;;;;;;;;;5075521;28;20098;-71
2021/08/15 05:53:50;;;;;;;12.45;3.15;;;;;;;;;;5062133;28;20025;-72
2021/08/15 05:56:16;;;;;;;10.85;4.38;;;;;;;;;;5069468;28;20028;-70
2021/08/15 05:58:42;;;;;;;10.50;4.68;;;;;;;;;;5063085;28;20025;-71
2021/08/15 06:01:09;;;;;;;8.23;3.47;;;;;;;;;;5055379;28;20025;-71
2021/08/15 06:03:35;;;;;;;16.10;4.68;;;;;;;;;;5058729;28;20033;-70
2021/08/15 06:06:01;;;;;;;11.00;3.55;;;;;;;;;;5054639;28;20102;-74
2021/08/15 06:08:27;;;;;;;8.38;3.53;;;;;;;;;;5063828;28;20033;-73
2021/08/15 06:10:54;;;;;;;11.70;4.22;;;;;;;;;;5074546;28;20021;-70
2021/08/15 06:13:20;;;;;;;10.00;4.43;;;;;;;;;;5072936;28;20032;-71
2021/08/15 06:15:46;;;;;;;12.15;3.45;;;;;;;;;;5074468;28;20032;-71
2021/08/15 06:18:13;;;;;;;11.07;3.65;;;;;;;;;;5073341;28;20020;-73
2021/08/15 06:20:39;;;;;;;10.25;3.75;;;;;;;;;;5074931;28;20021;-70
2021/08/15 06:23:05;;;;;;;5.47;3.38;;;;;;;;;;5073229;28;20025;-72
2021/08/15 06:25:32;;;;;;;13.07;3.78;;;;;;;;;;5074538;28;20052;-68
2021/08/15 06:27:58;;;;;;;15.02;3.83;;;;;;;;;;5068538;28;20036;-72
2021/08/15 06:30:24;;;;;;;13.65;3.83;;;;;;;;;;5054978;28;20028;-71
2021/08/15 06:32:51;;;;;;;10.90;3.35;;;;;;;;;;5058436;28;20035;-71
2021/08/15 06:35:18;;;;;;;9.40;3.15;;;;;;;;;;5074302;28;20085;-71
2021/08/15 06:37:45;;;;;;;13.15;3.55;;;;;;;;;;5065439;28;20021;-71
2021/08/15 06:40:15;;;;;;;16.63;3.90;;;;;;;;;;5054156;28;20021;-74
2021/08/15 06:42:41;;;;;;;13.10;3.95;;;;;;;;;;5055084;28;20548;-71
2021/08/15 06:45:08;;;;;;;9.30;3.45;;;;;;;;;;5054309;28;20040;-73
2021/08/15 06:47:34;;;;;;;9.70;4.18;;;;;;;;;;5062848;28;20032;-71
2021/08/15 06:50:02;;;;;;;11.05;3.10;;;;;;;;;;5060000;28;20033;-71
2021/08/15 06:52:29;;;;;;;9.32;3.42;;;;;;;;;;5059476;28;20025;-73
2021/08/15 06:54:55;;;;;;;10.82;3.72;;;;;;;;;;5066048;28;20028;-71
2021/08/15 06:57:21;;;;;;;12.07;3.70;;;;;;;;;;5057192;28;20096;-69
2021/08/15 06:59:47;;;;;;;9.20;3.42;;;;;;;;;;5060295;28;20533;-70
2021/08/15 07:02:14;;;;;;;6.80;3.25;;;;;;;;;;5060877;28;20020;-74
2021/08/15 07:04:40;;;;;;;12.55;3.40;;;;;;;;;;5078208;28;20123;-71
2021/08/15 07:07:06;;;;;;;10.20;3.28;;;;;;;;;;5078247;28;20098;-70
2021/08/15 07:09:32;;;;;;;13.25;3.63;;;;;;;;;;5056849;28;20032;-72
2021/08/15 07:11:58;;;;;;;8.88;3.08;;;;;;;;;;5054833;28;20033;-72
2021/08/15 07:14:25;;;;;;;9.00;3.63;;;;;;;;;;5055180;28;20025;-71
2021/08/15 07:16:51;;;;;;;9.85;2.88;;;;;;;;;;5058626;28;20025;-72
2021/08/15 07:19:17;;;;;;;9.48;3.55;;;;;;;;;;5074404;28;20024;-70
2021/08/15 07:21:43;;;;;;;8.15;3.30;;;;;;;;;;5074553;28;20379;-72
2021/08/15 07:24:09;;;;;;;9.25;3.65;;;;;;;;;;5074500;28;20079;-71
2021/08/15 07:26:35;;;;;;;10.70;3.60;;;;;;;;;;5074122;28;20050;-69
2021/08/15 07:29:01;;;;;;;6.28;3.83;;;;;;;;;;5072589;28;20017;-72
2021/08/15 07:31:28;;;;;;;7.13;3.08;;;;;;;;;;5073970;28;20025;-71
2021/08/15 07:33:54;;;;;;;9.10;3.42;;;;;;;;;;5074247;28;20175;-70
2021/08/15 07:36:20;;;;;;;5.47;3.47;;;;;;;;;;5072253;28;20020;-73
2021/08/15 07:38:46;;;;;;;8.98;3.10;;;;;;;;;;5074583;28;20063;-70
2021/08/15 07:41:12;;;;;;;8.02;2.92;;;;;;;;;;5073963;28;20017;-72
2021/08/15 07:43:38;;;;;;;9.23;2.85;;;;;;;;;;5062924;28;20100;-72
2021/08/15 07:46:04;;;;;;;7.07;2.80;;;;;;;;;;5074461;28;20024;-72
2021/08/15 07:48:30;;;;;;;9.07;3.58;;;;;;;;;;5074129;28;20089;-67
2021/08/15 07:50:56;;;;;;;4.90;2.40;;;;;;;;;;5074453;28;20016;-73
2021/08/15 07:53:27;;;;;;;7.18;3.13;;;;;;;;;;5069135;28;20084;-72
2021/08/15 07:55:54;;;;;;;7.53;2.63;;;;;;;;;;5074021;28;20428;-72
2021/08/15 07:58:21;;;;;;;8.50;2.80;;;;;;;;;;5074101;28;20021;-71
2021/08/15 08:00:47;;;;;;;12.43;3.47;;;;;;;;;;5074543;28;20027;-73
2021/08/15 08:03:14;;;;;;;4.88;2.70;;;;;;;;;;5073361;28;20036;-69
2021/08/15 08:05:41;;;;;;;9.43;2.85;;;;;;;;;;5073841;28;20036;-71
2021/08/15 08:08:07;;;;;;;5.68;3.13;;;;;;;;;;5073671;28;20063;-71
2021/08/15 08:10:33;;;;;;;7.90;2.72;;;;;;;;;;5073556;28;20068;-72
2021/08/15 08:12:59;;;;;;;8.55;3.15;;;;;;;;;;5082818;28;20103;-71
2021/08/15 08:15:25;;;;;;;8.98;3.15;;;;;;;;;;5076905;28;20036;-72
2021/08/15 08:17:51;;;;;;;8.68;4.07;;;;;;;;;;5069208;28;20017;-72
2021/08/15 08:20:18;;;;;;;8.65;2.58;;;;;;;;;;5073569;28;20038;-71
2021/08/15 08:22:47;;;;;;;7.30;2.45;;;;;;;;;;5069071;28;20021;-72
2021/08/15 08:25:13;;;;;;;12.38;3.53;;;;;;;;;;5072674;28;20036;-72
2021/08/15 08:27:39;;;;;;;8.57;2.97;;;;;;;;;;5077697;28;20059;-72
2021/08/15 08:30:06;;;;;;;7.45;2.97;;;;;;;;;;5063412;28;20383;-71
2021/08/15 08:32:32;;;;;;;7.53;2.60;;;;;;;;;;5066962;28;20025;-71
2021/08/15 08:34:58;;;;;;;6.10;2.50;;;;;;;;;;5071102;28;20020;-71
2021/08/15 08:37:24;;;;;;;7.95;2.97;;;;;;;;;;5078413;28;20024;-70
2021/08/15 08:39:52;;;;;;;11.00;2.75;;;;;;;;;;5076971;28;20486;-73
2021/08/15 08:42:18;;;;;;;7.47;2.55;;;;;;;;;;5077217;28;20175;-71
2021/08/15 08:44:45;;;;;;;7.15;3.13;;;;;;;;;;5064454;28;20079;-70
2021/08/15 08:47:11;;;;;;;10.23;2.75;;;;;;;;;;5073614;28;20471;-73
2021/08/15 08:49:42;;;;;;;7.88;2.70;;;;;;;;;;5063330;28;20044;-72
2021/08/15 08:52:08;;;;;;;6.15;2.63;;;;;;;;;;5075491;28;20047;-71
2021/08/15 08:54:35;;;;;;;3.80;2.50;;;;;;;;;;5067727;28;20029;-71
2021/08/15 08:57:01;;;;;;;7.10;3.30;;;;;;;;;;5056581;28;20044;-74
2021/08/15 08:59:27;;;;;;;7.32;3.42;;;;;;;;;;5069678;28;20099;-73
2021/08/15 09:01:54;;;;;;;5.38;2.95;;;;;;;;;;5076447;28;20021;-72
2021/08/15 09:04:20;;;;;;;6.70;3.38;;;;;;;;;;5063061;28;20067;-71
2021/08/15 09:06:46;;;;;;;8.63;2.55;;;;;;;;;;5056056;28;20021;-71
2021/08/15 09:09:16;;;;;;;8.50;2.70;;;;;;;;;;5061237;28;20025;-75
2021/08/15 09:11:43;;;;;;;9.48;3.58;;;;;;;;;;5057160;28;20512;-71
2021/08/15 09:14:11;;;;;;;10.75;3.03;;;;;;;;;;5060287;28;20029;-72
2021/08/15 09:16:58;;;;;;;7.13;3.55;;;;;;;;;;5065109;28;20074;-71
2021/08/15 09:19:24;;;;;;;8.98;2.45;;;;;;;;;;5074561;28;20024;-72
2021/08/15 09:21:50;;;;;;;9.98;2.85;;;;;;;;;;5071941;28;20025;-71
2021/08/15 09:24:16;;;;;;;5.68;2.15;;;;;;;;;;5062676;28;20031;-71
2021/08/15 09:26:54;;;;;;;6.85;2.10;;;;;;;;;;5066046;28;20025;-72
2021/08/15 09:29:20;;;;;;;5.80;2.22;;;;;;;;;;5067346;28;20031;-68
2021/08/15 09:31:47;;;;;;;6.97;2.80;;;;;;;;;;5074499;28;20115;-71
2021/08/15 09:34:27;;;;;;;6.75;2.78;;;;;;;;;;5073919;28;20028;-72
2021/08/15 09:36:53;;;;;;;5.97;2.47;;;;;;;;;;5068004;28;20055;-72
2021/08/15 09:39:33;;;;;;;5.75;3.17;;;;;;;;;;5072277;28;20060;-70
2021/08/15 09:41:59;;;;;;;3.85;2.58;;;;;;;;;;5072842;28;20031;-69
2021/08/15 09:44:27;;;;;;;6.75;2.38;;;;;;;;;;5064266;28;20032;-72
2021/08/15 09:46:56;;;;;;;6.55;2.20;;;;;;;;;;5059312;28;20040;-71
2021/08/15 09:49:23;;;;;;;3.75;2.08;;;;;;;;;;5063785;28;20024;-71
2021/08/15 09:51:49;;;;;;;5.85;2.22;;;;;;;;;;5076016;28;20029;-69
2021/08/15 09:54:18;;;;;;;5.68;2.30;;;;;;;;;;5073833;28;20046;-74
2021/08/15 09:56:45;;;;;;;8.10;2.30;;;;;;;;;;5073553;28;20023;-71
2021/08/15 09:59:18;;;;;;;5.57;2.60;;;;;;;;;;5075581;28;20051;-71
2021/08/15 10:02:04;;;;;;;4.78;2.63;;;;;;;;;;5068591;28;20013;-72
2021/08/15 10:04:30;;;;;;;6.20;2.30;;;;;;;;;;5075524;28;20052;-71
2021/08/15 10:06:57;;;;;;;5.28;2.40;;;;;;;;;;5070193;28;20032;-70
2021/08/15 10:09:25;;;;;;;6.97;2.22;;;;;;;;;;5056596;28;20112;-70
2021/08/15 10:11:51;;;;;;;7.20;2.70;;;;;;;;;;5068882;28;20514;-70
2021/08/15 10:14:17;;;;;;;6.45;3.00;;;;;;;;;;5058285;28;20043;-70
2021/08/15 10:16:43;;;;;;;5.05;2.00;;;;;;;;;;5074712;28;20039;-70
2021/08/15 10:19:13;;;;;;;6.18;2.28;;;;;;;;;;5078327;28;20024;-74
2021/08/15 10:21:45;;;;;;;6.28;2.20;;;;;;;;;;5061435;28;20033;-72
2021/08/15 10:24:13;;;;;;;7.15;2.60;;;;;;;;;;5054666;28;20025;-73
2021/08/15 10:26:46;;;;;;;6.30;2.30;;;;;;;;;;5060015;28;20036;-71
2021/08/15 10:29:32;;;;;;;7.47;2.10;;;;;;;;;;5068103;28;20505;-72
2021/08/15 10:32:16;;;;;;;6.88;2.53;;;;;;;;;;5074704;28;20036;-74
2021/08/15 10:34:53;;;;;;;4.13;2.40;;;;;;;;;;5075123;28;20028;-72
2021/08/15 10:37:25;;;;;;;8.80;3.28;;;;;;;;;;5073070;28;20017;-71
2021/08/15 10:39:53;;;;;;;4.43;1.90;;;;;;;;;;5062813;28;20025;-71
2021/08/15 10:42:37;;;;;;;3.38;2.13;;;;;;;;;;5074750;28;20430;-71
2021/08/15 10:45:07;;;;;;;6.15;2.53;;;;;;;;;;5073882;28;20103;-72
2021/08/15 10:47:33;;;;;;;5.05;3.08;;;;;;;;;;5074357;28;20040;-70
2021/08/15 10:50:03;;;;;;;3.58;2.30;;;;;;;;;;5069915;28;20040;-71
2021/08/15 10:52:40;;;;;;;6.22;2.35;;;;;;;;;;5054403;28;20099;-70
2021/08/15 10:55:07;;;;;;;6.80;2.30;;;;;;;;;;5054988;28;20029;-72
2021/08/15 10:57:45;;;;;;;6.10;2.28;;;;;;;;;;5054534;28;20028;-70
2021/08/15 11:00:30;;;;;;;3.88;1.83;;;;;;;;;;5054665;28;20032;-71
2021/08/15 11:03:00;;;;;;;6.45;2.42;;;;;;;;;;5054892;28;20043;-71
2021/08/15 11:05:35;;;;;;;4.63;2.42;;;;;;;;;;5054383;28;20044;-72
2021/08/15 11:08:05;;;;;;;9.30;3.45;;;;;;;;;;5054660;28;20036;-71
2021/08/15 11:10:49;;;;;;;9.15;2.53;;;;;;;;;;5054540;28;20025;-71
2021/08/15 11:13:16;;;;;;;6.73;2.53;;;;;;;;;;5054327;28;20024;-71
2021/08/15 11:15:42;;;;;;;7.65;3.40;;;;;;;;;;5054999;28;20025;-70
2021/08/15 11:18:13;;;;;;;8.32;4.32;;;;;;;;;;5054630;28;20036;-72
2021/08/15 11:20:48;;;;;;;10.23;4.03;;;;;;;;;;5055006;28;20083;-70
2021/08/15 11:23:13;;;;;;;;;;;;;;;;;;5054361;28;20025;-72
2021/08/15 11:25:40;;;;;;;10.13;3.85;;;;;;;;;;5054183;28;19912;-71
2021/08/15 11:28:06;;;;;;;7.20;3.67;;;;;;;;;;5054405;28;20416;-70
2021/08/15 11:30:32;;;;;;;8.82;4.80;;;;;;;;;;5054388;28;20096;-70
2021/08/15 11:33:00;;;;;;;6.88;4.18;;;;;;;;;;5053898;28;20036;-72
2021/08/15 11:35:43;;;;;;;7.53;4.82;;;;;;;;;;5053287;28;20521;-71
2021/08/15 11:38:11;;;;;;;9.85;4.60;;;;;;;;;;5053855;28;20472;-71
2021/08/15 11:40:41;;;;;;;9.70;4.65;;;;;;;;;;5053685;28;20432;-73
2021/08/15 11:43:17;;;;;;;7.03;5.10;;;;;;;;;;5053864;28;20021;-70
2021/08/15 11:45:45;;;;;;;9.73;5.78;;;;;;;;;;5053292;28;20488;-72
2021/08/15 11:48:28;;;;;;;6.38;4.55;;;;;;;;;;5053962;28;20025;-73
2021/08/15 11:50:59;;;;;;;6.28;4.65;;;;;;;;;;5053586;28;20043;-73
2021/08/15 11:53:32;;;;;;;8.07;5.22;;;;;;;;;;5052915;28;20029;-71
2021/08/15 11:56:11;;;;;;;6.72;4.60;;;;;;;;;;5055451;28;20029;-71
2021/08/15 11:59:08;;;;;;;6.60;4.85;;;;;;;;;;5058709;28;20052;-71
2021/08/15 12:01:34;;;;;;;4.45;3.78;;;;;;;;;;5056906;28;20039;-72
2021/08/15 12:04:06;;;;;;;5.68;4.05;;;;;;;;;;5055674;28;20052;-71
2021/08/15 12:06:33;;;;;;;8.27;4.07;;;;;;;;;;5057573;28;20063;-70
2021/08/15 12:08:59;;;;;;;9.82;4.93;;;;;;;;;;5057177;28;20025;-72
2021/08/15 12:11:30;;;;;;;7.25;3.90;;;;;;;;;;5057503;28;20025;-71
2021/08/15 12:14:08;;;;;;;9.10;3.88;;;;;;;;;;5057414;28;20029;-72
2021/08/15 12:16:35;;;;;;;6.82;4.03;;;;;;;;;;5058393;28;20059;-71
2021/08/15 12:19:01;;;;;;;6.85;4.63;;;;;;;;;;5068452;28;20020;-69
2021/08/15 12:21:27;;;;;;;8.02;4.82;;;;;;;;;;5074180;28;20035;-73
2021/08/15 12:23:57;;;;;;;7.53;4.40;;;;;;;;;;5065032;28;20059;-71
2021/08/15 12:26:27;;;;;;;4.47;3.60;;;;;;;;;;5074572;28;20455;-71
2021/08/15 12:28:57;;;;;;;5.57;3.05;;;;;;;;;;5063583;28;20364;-71
2021/08/15 12:31:25;;;;;;;3.25;2.30;;;;;;;;;;5077086;28;20029;-71
2021/08/15 12:34:02;;;;;;;4.22;2.15;;;;;;;;;;5067252;28;20028;-70
2021/08/15 12:36:30;;;;;;;4.80;2.35;;;;;;;;;;5057129;28;20035;-70
2021/08/15 12:39:05;;;;;;;4.25;3.17;;;;;;;;;;5072125;28;20032;-70
2021/08/15 12:41:49;;;;;;;11.00;4.10;;;;;;;;;;5065159;28;20091;-71
2021/08/15 12:44:19;;;;;;;6.70;3.92;;;;;;;;;;5074061;28;20104;-69
2021/08/15 12:46:56;;;;;;;4.65;3.00;;;;;;;;;;5077541;28;20028;-73
2021/08/15 12:49:26;;;;;;;3.30;2.90;;;;;;;;;;5070613;28;20475;-70
2021/08/15 12:52:08;;;;;;;3.92;3.10;;;;;;;;;;5073757;28;20103;-72
2021/08/15 12:54:34;;;;;;;5.38;3.00;;;;;;;;;;5055255;28;20082;-69
2021/08/15 12:57:00;;;;;;;3.78;2.70;;;;;;;;;;5063221;28;20025;-70
2021/08/15 12:59:27;;;;;;;3.35;2.30;;;;;;;;;;5073845;28;20032;-71
2021/08/15 13:01:53;;;;;;;3.90;3.13;;;;;;;;;;5075155;28;20017;-71
2021/08/15 13:04:19;;;;;;;2.97;1.90;;;;;;;;;;5073100;28;20048;-72
2021/08/15 13:06:45;;;;;;;2.05;1.73;;;;;;;;;;5074142;28;20096;-70
2021/08/15 13:09:11;;;;;;;2.58;1.73;;;;;;;;;;5075580;28;20020;-71
2021/08/15 13:11:37;;;;;;;3.20;1.80;;;;;;;;;;5075182;28;20020;-70
2021/08/15 13:14:04;;;;;;;1.75;1.50;;;;;;;;;;5075242;28;20028;-72
2021/08/15 13:16:31;;;;;;;1.83;1.70;;;;;;;;;;5075449;28;20059;-71
2021/08/15 13:18:57;;;;;;;1.80;1.70;;;;;;;;;;5075045;28;20025;-69
2021/08/15 13:21:23;;;;;;;1.98;1.60;;;;;;;;;;5075329;28;20024;-70
2021/08/15 13:23:49;;;;;;;1.83;1.73;;;;;;;;;;5074924;28;20505;-71
2021/08/15 13:26:15;;;;;;;2.50;2.00;;;;;;;;;;5075183;28;20024;-73
2021/08/15 13:28:41;;;;;;;2.25;2.05;;;;;;;;;;5076164;28;20029;-70
2021/08/15 13:31:08;;;;;;;2.50;2.30;;;;;;;;;;5075202;28;20086;-70
2021/08/15 13:33:34;;;;;;;2.40;2.20;;;;;;;;;;5071825;28;20100;-70
2021/08/15 13:36:00;;;;;;;3.83;2.45;;;;;;;;;;5058076;28;20017;-71
2021/08/15 13:38:26;;;;;;;2.50;2.00;;;;;;;;;;5055849;28;20090;-70
2021/08/15 13:40:52;;;;;;;2.15;1.90;;;;;;;;;;5060165;28;20025;-71
2021/08/15 13:43:18;;;;;;;2.13;1.92;;;;;;;;;;5069715;28;20052;-70
2021/08/15 13:45:45;;;;;;;1.92;1.73;;;;;;;;;;5072492;28;20032;-71
2021/08/15 13:48:12;;;;;;;2.10;1.90;;;;;;;;;;5072534;28;20024;-71
2021/08/15 13:50:38;;;;;;;2.63;2.00;;;;;;;;;;5071133;28;20036;-70
2021/08/15 13:53:04;;;;;;;2.00;1.80;;;;;;;;;;5072460;28;20082;-70
2021/08/15 13:55:30;;;;;;;2.45;2.25;;;;;;;;;;5072297;28;20043;-70
2021/08/15 13:57:56;;;;;;;3.05;2.40;;;;;;;;;;5073314;28;20024;-71
2021/08/15 14:00:22;;;;;;;4.45;2.55;;;;;;;;;;5074864;28;20075;-72
2021/08/15 14:02:49;;;;;;;3.63;2.63;;;;;;;;;;5074053;28;20073;-70
2021/08/15 14:05:15;;;;;;;4.70;2.38;;;;;;;;;;5074479;28;20034;-72
2021/08/15 14:07:42;;;;;;;3.30;2.30;;;;;;;;;;5073923;28;20482;-72
2021/08/15 14:10:09;;;;;;;3.28;2.65;;;;;;;;;;5074862;28;20029;-73
2021/08/15 14:12:35;;;;;;;2.50;2.30;;;;;;;;;;5074758;28;20115;-73
2021/08/15 14:15:01;;;;;;;3.22;2.33;;;;;;;;;;5074421;28;20021;-73
2021/08/15 14:17:27;;;;;;;2.83;2.45;;;;;;;;;;5073877;28;20105;-72
2021/08/15 14:19:53;;;;;;;3.22;2.30;;;;;;;;;;5072968;28;20395;-72
2021/08/15 14:22:20;;;;;;;2.90;2.55;;;;;;;;;;5074291;28;20021;-71
2021/08/15 14:24:46;;;;;;;4.38;2.70;;;;;;;;;;5073529;28;20024;-72
2021/08/15 14:27:12;;;;;;;3.08;2.75;;;;;;;;;;5073592;28;20040;-72
2021/08/15 14:29:38;;;;;;;5.53;2.78;;;;;;;;;;5073468;28;20502;-70
2021/08/15 14:32:05;;;;;;;5.15;2.67;;;;;;;;;;5073637;28;20056;-72
2021/08/15 14:34:31;;;;;;;6.45;2.80;;;;;;;;;;5073421;28;20051;-69
2021/08/15 14:36:57;;;;;;;5.97;2.63;;;;;;;;;;5073332;28;20415;-71
2021/08/15 14:39:23;;;;;;;3.72;2.90;;;;;;;;;;5073633;28;20104;-70